Time;durP1;ratioP1;P1;durP2;ratioP2;P2;SDS_P1;SDS_P2;PMS_P1;PMS_P2;Temp;Humidity;BMP_temperature;BMP_pressure;BME280_temperature;BME280_humidity;BME280_pressure;Samples;Min_cycle;Max_cycle;Signal;HPM_P1;HPM_P2
2022/02/23 00:00:27;;;;;;;27.20;17.20;;;;;;;-3.38;83.56;97394.20;109641;1250;67798;-61
2022/02/23 00:03:08;;;;;;;22.20;16.50;;;;;;;-3.40;83.17;97394.92;109614;1250;68729;-62
2022/02/23 00:05:40;;;;;;;17.00;12.90;;;;;;;-3.43;82.84;97396.51;109705;1250;59682;-62
2022/02/23 00:08:10;;;;;;;21.70;12.90;;;;;;;-3.42;81.57;97392.73;109672;1250;59694;-63
2022/02/23 00:10:41;;;;;;;17.30;12.30;;;;;;;-3.37;81.22;97392.32;109842;1250;70715;-63
2022/02/23 00:13:10;;;;;;;20.40;12.90;;;;;;;-3.37;81.36;97389.77;109784;1250;67794;-65
2022/02/23 00:15:43;;;;;;;28.50;17.60;;;;;;;-3.39;82.21;97394.23;109714;1250;69415;-64
2022/02/23 00:18:13;;;;;;;20.60;13.90;;;;;;;-3.43;82.97;97400.95;109713;1250;59738;-61
2022/02/23 00:20:44;;;;;;;31.50;22.00;;;;;;;-3.47;82.89;97400.51;109619;1251;59778;-62
2022/02/23 00:23:14;;;;;;;31.70;19.30;;;;;;;-3.51;84.16;97398.17;109790;1250;71561;-61
2022/02/23 00:25:45;;;;;;;21.50;14.00;;;;;;;-3.47;82.76;97395.56;109679;1250;68550;-61
2022/02/23 00:28:15;;;;;;;21.80;14.20;;;;;;;-3.35;82.56;97391.58;109667;1251;68600;-62
2022/02/23 00:30:47;;;;;;;22.40;14.50;;;;;;;-3.23;83.42;97393.77;109595;1251;59838;-61
2022/02/23 00:33:18;;;;;;;24.80;16.00;;;;;;;-3.17;83.76;97390.08;109782;1249;59679;-62
2022/02/23 00:35:48;;;;;;;23.80;14.90;;;;;;;-3.16;83.67;97392.10;109766;1250;71337;-65
2022/02/23 00:38:18;;;;;;;24.90;15.10;;;;;;;-3.17;83.38;97393.83;109798;1250;68442;-64
2022/02/23 00:40:50;;;;;;;31.80;19.50;;;;;;;-3.21;83.70;97393.55;109579;1250;68500;-62
2022/02/23 00:43:19;;;;;;;33.50;21.40;;;;;;;-3.26;85.16;97398.94;109789;1250;59748;-61
2022/02/23 00:45:51;;;;;;;28.20;18.60;;;;;;;-3.31;85.32;97403.10;109800;1250;59655;-61
2022/02/23 00:48:21;;;;;;;20.90;13.20;;;;;;;-3.34;85.12;97403.50;109584;1250;71522;-62
2022/02/23 00:50:53;;;;;;;22.70;14.70;;;;;;;-3.30;83.63;97406.16;109821;1250;68587;-63
2022/02/23 00:53:22;;;;;;;31.40;17.80;;;;;;;-3.30;83.69;97411.28;109441;1251;68400;-61
2022/02/23 00:55:53;;;;;;;20.10;13.10;;;;;;;-3.38;84.44;97421.13;109714;1250;59706;-61
2022/02/23 00:58:23;;;;;;;17.90;11.20;;;;;;;-3.44;84.03;97427.70;109566;1251;59645;-61
2022/02/23 01:00:55;;;;;;;21.60;13.90;;;;;;;-3.42;83.32;97426.65;109733;1250;71515;-61
2022/02/23 01:03:25;;;;;;;26.80;14.20;;;;;;;-3.36;83.73;97426.55;109691;1250;67564;-62
2022/02/23 01:05:56;;;;;;;24.10;14.40;;;;;;;-3.32;84.15;97424.62;109507;1253;68694;-61
2022/02/23 01:08:26;;;;;;;23.60;16.20;;;;;;;-3.30;84.53;97418.42;109635;1251;59731;-61
2022/02/23 01:10:58;;;;;;;29.10;17.70;;;;;;;-3.32;84.77;97420.34;109776;1250;59679;-63
2022/02/23 01:13:28;;;;;;;24.10;14.40;;;;;;;-3.41;85.21;97425.10;109606;1250;70772;-63
2022/02/23 01:15:59;;;;;;;21.00;13.30;;;;;;;-3.49;84.78;97424.71;109578;1251;68407;-63
2022/02/23 01:18:29;;;;;;;23.10;13.50;;;;;;;-3.57;84.36;97417.02;109554;1250;68740;-63
2022/02/23 01:21:00;;;;;;;23.00;14.20;;;;;;;-3.61;84.05;97411.98;109551;1253;60140;-63
2022/02/23 01:23:30;;;;;;;24.90;16.00;;;;;;;-3.61;84.66;97415.88;109690;1251;59702;-64
2022/02/23 01:26:02;;;;;;;22.00;13.00;;;;;;;-3.64;85.14;97415.60;109642;1251;71509;-63
2022/02/23 01:28:33;;;;;;;20.50;13.90;;;;;;;-3.64;84.36;97415.77;109726;1250;68635;-64
2022/02/23 01:31:03;;;;;;;25.30;13.70;;;;;;;-3.61;84.15;97416.58;109628;1251;69418;-60
2022/02/23 01:33:33;;;;;;;24.10;15.50;;;;;;;-3.54;84.74;97415.27;109803;1249;59757;-63
2022/02/23 01:36:04;;;;;;;31.80;19.40;;;;;;;-3.53;85.29;97417.46;109608;1251;59767;-65
2022/02/23 01:38:35;;;;;;;35.30;21.80;;;;;;;-3.63;86.92;97416.09;109504;1250;70986;-62
2022/02/23 01:41:06;;;;;;;24.90;15.60;;;;;;;-3.67;87.29;97416.34;109754;1250;68396;-61
2022/02/23 01:43:36;;;;;;;41.30;23.20;;;;;;;-3.66;86.56;97413.23;109642;1250;67739;-63
2022/02/23 01:46:07;;;;;;;40.00;22.50;;;;;;;-3.69;87.38;97417.72;109725;1250;59773;-62
2022/02/23 01:48:38;;;;;;;27.60;17.70;;;;;;;-3.73;87.30;97415.24;109458;1253;59816;-63
2022/02/23 01:51:09;;;;;;;25.20;14.70;;;;;;;-3.77;87.27;97416.15;109837;1249;71522;-65
2022/02/23 01:53:40;;;;;;;35.10;20.10;;;;;;;-3.78;86.28;97413.96;109836;1250;68460;-63
2022/02/23 01:56:11;;;;;;;34.60;20.40;;;;;;;-3.81;86.68;97416.91;109880;1250;68547;-63
2022/02/23 01:58:40;;;;;;;31.20;18.60;;;;;;;-3.84;87.25;97413.88;109835;1249;59674;-62
2022/02/23 02:01:15;;;;;;;21.90;13.70;;;;;;;-3.85;87.40;97418.67;109865;1250;59676;-62
2022/02/23 02:03:45;;;;;;;26.00;15.50;;;;;;;-3.88;86.43;97422.45;109616;1251;70809;-63
2022/02/23 02:06:16;;;;;;;28.40;17.80;;;;;;;-3.92;86.11;97424.39;109834;1250;68477;-62
2022/02/23 02:08:47;;;;;;;36.30;20.50;;;;;;;-3.97;86.68;97421.58;109742;1251;68642;-60
2022/02/23 02:11:16;;;;;;;30.60;19.40;;;;;;;-4.01;87.22;97428.28;109865;1250;59763;-64
2022/02/23 02:13:46;;;;;;;;;;;;;;;-4.04;86.94;97434.63;109777;1250;59748;-62
2022/02/23 02:16:17;;;;;;;46.40;26.70;;;;;;;-4.09;87.09;97431.63;109777;1250;70770;-61
2022/02/23 02:18:47;;;;;;;42.50;24.30;;;;;;;-4.09;88.07;97434.69;109615;1250;68133;-61
2022/02/23 02:21:17;;;;;;;26.90;16.60;;;;;;;-4.08;88.08;97439.95;109621;1253;69242;-61
2022/02/23 02:23:47;;;;;;;25.90;15.20;;;;;;;-4.07;86.69;97439.08;109626;1250;59817;-62
2022/02/23 02:26:17;;;;;;;43.80;25.90;;;;;;;-4.09;86.15;97435.71;109540;1253;59721;-62
2022/02/23 02:28:47;;;;;;;;;;;;;;;-4.11;87.32;97442.21;109717;1250;70980;-65
2022/02/23 02:31:19;;;;;;;28.40;16.90;;;;;;;-4.12;87.41;97445.28;109774;1250;68589;-65
2022/02/23 02:33:49;;;;;;;22.40;15.40;;;;;;;-4.14;86.67;97449.40;109614;1251;69355;-63
2022/02/23 02:36:20;;;;;;;39.40;23.40;;;;;;;-4.17;86.19;97452.48;109719;1250;59681;-63
2022/02/23 02:38:50;;;;;;;45.80;24.80;;;;;;;-4.19;86.83;97455.42;109836;1250;59801;-63
2022/02/23 02:41:21;;;;;;;37.70;22.80;;;;;;;-4.16;88.23;97460.31;109496;1252;71517;-63
2022/02/23 02:43:52;;;;;;;44.60;25.90;;;;;;;-4.10;88.71;97465.86;108905;1251;808903;-61
2022/02/23 02:46:24;;;;;;;47.90;26.70;;;;;;;-4.04;88.37;97468.33;109665;1250;69425;-61
2022/02/23 02:48:55;;;;;;;31.50;19.40;;;;;;;-3.97;88.39;97474.02;109581;1253;59752;-61
2022/02/23 02:51:25;;;;;;;23.90;16.00;;;;;;;-3.89;88.08;97483.42;109693;1251;59702;-60
2022/02/23 02:53:56;;;;;;;22.40;15.40;;;;;;;-3.81;87.58;97485.36;109633;1251;70794;-63
2022/02/23 02:56:26;;;;;;;24.10;15.90;;;;;;;-3.74;87.23;97491.38;109666;1251;67634;-61
2022/02/23 02:58:57;;;;;;;49.30;28.80;;;;;;;-3.65;87.85;97497.55;109678;1251;69414;-62
2022/02/23 03:01:29;;;;;;;44.70;27.70;;;;;;;-3.61;88.33;97508.41;109848;1251;59784;-63
2022/02/23 03:04:01;;;;;;;34.60;22.00;;;;;;;-3.65;86.63;97509.81;109656;1252;59767;-64
2022/02/23 03:06:31;;;;;;;28.00;18.10;;;;;;;-3.62;86.05;97512.33;109729;1250;70862;-65
2022/02/23 03:09:04;;;;;;;20.80;14.20;;;;;;;-3.59;85.86;97510.94;109566;1252;68402;-63
2022/02/23 03:11:35;;;;;;;23.60;13.60;;;;;;;-3.52;85.77;97510.84;109832;1250;69425;-62
2022/02/23 03:14:06;;;;;;;24.00;16.50;;;;;;;-3.47;85.64;97516.36;109644;1250;59821;-63
2022/02/23 03:16:36;;;;;;;37.80;24.10;;;;;;;-3.42;85.63;97522.59;109760;1250;59685;-61
2022/02/23 03:19:06;;;;;;;27.30;16.70;;;;;;;-3.39;85.40;97522.36;109613;1250;71518;-64
2022/02/23 03:21:37;;;;;;;22.90;14.70;;;;;;;-3.35;85.04;97524.38;109829;1250;67610;-63
2022/02/23 03:24:08;;;;;;;21.40;15.00;;;;;;;-3.30;84.98;97523.94;109686;1251;69696;-63
2022/02/23 03:26:38;;;;;;;29.50;18.70;;;;;;;-3.21;83.73;97529.59;109635;1251;59717;-62
2022/02/23 03:29:08;;;;;;;38.60;26.30;;;;;;;-3.25;85.25;97538.68;109690;1251;59629;-64
2022/02/23 03:31:39;;;;;;;25.50;17.30;;;;;;;-3.24;85.05;97543.29;109776;1250;71517;-61
2022/02/23 03:34:09;;;;;;;27.70;17.50;;;;;;;-3.20;84.41;97536.21;109584;1251;68629;-61
2022/02/23 03:36:39;;;;;;;26.00;16.40;;;;;;;-3.16;84.46;97532.92;109600;1251;68479;-61
2022/02/23 03:39:11;;;;;;;30.30;18.50;;;;;;;-3.08;83.70;97532.60;109668;1250;59672;-61
2022/02/23 03:41:41;;;;;;;31.20;17.00;;;;;;;-3.03;83.71;97527.41;109611;1251;59709;-60
2022/02/23 03:44:12;;;;;;;41.70;26.90;;;;;;;-3.00;83.56;97530.95;109557;1253;71553;-62
2022/02/23 03:46:42;;;;;;;28.10;17.70;;;;;;;-2.98;84.13;97530.76;109614;1250;68607;-62
2022/02/23 03:49:13;;;;;;;20.20;14.80;;;;;;;-2.94;83.89;97528.29;109813;1250;68629;-63
2022/02/23 03:51:44;;;;;;;24.70;17.30;;;;;;;-2.91;83.71;97530.95;109658;1251;59775;-62
2022/02/23 03:54:13;;;;;;;32.50;21.40;;;;;;;-2.86;83.42;97538.04;109849;1250;59757;-63
2022/02/23 03:56:44;;;;;;;22.40;15.80;;;;;;;-2.82;83.36;97535.92;109651;1250;70957;-61
2022/02/23 03:59:14;;;;;;;;;;;;;;;-2.78;83.25;97531.92;109747;1250;68618;-62
2022/02/23 04:01:46;;;;;;;29.90;20.60;;;;;;;-2.74;83.58;97527.08;109646;1250;68667;-61
2022/02/23 04:04:17;;;;;;;25.20;16.10;;;;;;;-2.70;82.95;97528.36;109844;1250;59777;-60
2022/02/23 04:06:49;;;;;;;22.00;15.70;;;;;;;-2.68;82.34;97526.80;109678;1249;59759;-61
2022/02/23 04:09:18;;;;;;;18.20;12.80;;;;;;;-2.66;82.54;97524.88;109786;1250;71583;-63
2022/02/23 04:11:48;;;;;;;36.30;21.60;;;;;;;-2.62;82.29;97520.70;109718;1250;67824;-61
2022/02/23 04:14:18;;;;;;;43.90;28.70;;;;;;;-2.61;83.63;97528.53;109644;1250;69399;-61
2022/02/23 04:16:49;;;;;;;36.40;20.40;;;;;;;-2.65;84.30;97525.38;109722;1250;59722;-63
2022/02/23 04:19:19;;;;;;;31.20;20.90;;;;;;;-2.63;82.98;97513.90;109663;1250;59672;-61
2022/02/23 04:21:49;;;;;;;33.30;20.30;;;;;;;-2.58;82.56;97505.96;109674;1250;71340;-61
2022/02/23 04:24:19;;;;;;;35.40;21.50;;;;;;;-2.59;82.71;97512.80;109858;1250;67674;-64
2022/02/23 04:26:49;;;;;;;24.60;16.30;;;;;;;-2.60;82.92;97516.40;109749;1250;68887;-63
2022/02/23 04:29:20;;;;;;;34.00;22.70;;;;;;;-2.59;82.61;97514.86;109597;1250;59778;-62
2022/02/23 04:31:50;;;;;;;28.80;19.30;;;;;;;-2.59;82.97;97512.30;109609;1250;59729;-62
2022/02/23 04:34:20;;;;;;;45.00;29.70;;;;;;;-2.59;84.02;97508.02;109822;1250;71563;-61
2022/02/23 04:36:52;;;;;;;42.00;24.80;;;;;;;-2.60;85.25;97509.58;109610;1250;68680;-62
2022/02/23 04:39:29;;;;;;;30.50;19.60;;;;;;;-2.58;84.90;97515.70;109750;1250;68599;-61
2022/02/23 04:42:02;;;;;;;42.20;25.20;;;;;;;-2.55;84.81;97513.56;109790;1250;60091;-62
2022/02/23 04:44:31;;;;;;;38.90;24.40;;;;;;;-2.55;85.69;97507.77;109703;1250;60370;-61
2022/02/23 04:47:02;;;;;;;30.80;19.60;;;;;;;-2.52;85.63;97510.81;109776;1250;71476;-62
2022/02/23 04:49:31;;;;;;;29.20;19.20;;;;;;;-2.49;84.88;97509.04;109690;1250;68395;-61
2022/02/23 04:52:01;;;;;;;42.10;25.60;;;;;;;-2.46;84.78;97507.44;109691;1251;69387;-62
2022/02/23 04:54:31;;;;;;;25.40;19.60;;;;;;;-2.43;85.44;97503.97;109732;1250;59715;-62
2022/02/23 04:57:02;;;;;;;;;;;;;;;-2.38;84.44;97506.95;109690;1251;59753;-62
2022/02/23 04:59:31;;;;;;;30.40;19.50;;;;;;;-2.35;83.54;97511.67;109870;1250;71055;-62
2022/02/23 05:02:01;;;;;;;;;;;;;;;-2.34;83.03;97514.89;109789;1250;67830;-63
2022/02/23 05:04:32;;;;;;;33.40;20.90;;;;;;;-2.32;82.92;97517.73;109918;1249;70138;-66
2022/02/23 05:07:02;;;;;;;25.90;17.60;;;;;;;-2.31;83.04;97514.99;109718;1250;60296;-63
2022/02/23 05:09:37;;;;;;;49.40;27.90;;;;;;;-2.28;83.77;97519.36;109833;1249;59635;-61
2022/02/23 05:12:09;;;;;;;46.40;30.70;;;;;;;-2.28;84.55;97523.82;109938;1250;71387;-62
2022/02/23 05:14:38;;;;;;;35.20;21.40;;;;;;;-2.28;84.60;97520.39;109767;1250;68616;-65
2022/02/23 05:17:08;;;;;;;31.90;18.30;;;;;;;-2.27;83.94;97518.15;109716;1250;68676;-63
2022/02/23 05:19:38;;;;;;;36.20;20.20;;;;;;;-2.24;83.25;97516.04;109586;1251;59700;-62
2022/02/23 05:22:08;;;;;;;68.80;39.80;;;;;;;-2.22;83.46;97510.19;109784;1250;59689;-62
2022/02/23 05:24:37;;;;;;;52.10;30.90;;;;;;;-2.19;84.86;97512.70;109886;1249;71400;-61
2022/02/23 05:27:08;;;;;;;72.30;41.20;;;;;;;-2.15;84.35;97511.60;110060;1248;67783;-62
2022/02/23 05:29:38;;;;;;;48.70;28.80;;;;;;;-2.13;84.33;97511.55;109762;1249;68268;-62
2022/02/23 05:32:08;;;;;;;40.70;23.70;;;;;;;-2.10;83.72;97509.59;109738;1250;59684;-64
2022/02/23 05:34:38;;;;;;;36.70;22.20;;;;;;;-2.05;83.23;97511.89;109664;1251;59740;-62
2022/02/23 05:37:08;;;;;;;33.60;20.40;;;;;;;-1.99;82.97;97522.89;109782;1250;70792;-63
2022/02/23 05:39:38;;;;;;;42.10;26.50;;;;;;;-1.93;82.68;97530.80;109547;1251;69848;-63
2022/02/23 05:42:10;;;;;;;36.80;23.40;;;;;;;-1.90;83.19;97534.64;109969;1250;69377;-64
2022/02/23 05:44:39;;;;;;;41.50;26.10;;;;;;;-1.87;84.09;97540.73;109762;1249;60133;-63
2022/02/23 05:47:11;;;;;;;46.40;25.70;;;;;;;-1.83;85.05;97540.14;109773;1250;59998;-65
2022/02/23 05:49:40;;;;;;;33.90;21.00;;;;;;;-1.79;85.87;97538.69;109813;1250;71530;-63
2022/02/23 05:52:14;;;;;;;32.10;20.00;;;;;;;-1.71;84.86;97542.27;109640;1251;67819;-61
2022/02/23 05:54:43;;;;;;;32.90;20.80;;;;;;;-1.63;84.46;97539.34;109584;1252;68653;-62
2022/02/23 05:57:13;;;;;;;25.20;15.30;;;;;;;-1.55;84.06;97547.55;109761;1250;59695;-61
2022/02/23 05:59:49;;;;;;;30.70;21.20;;;;;;;-1.47;83.36;97549.24;109768;1248;59706;-62
2022/02/23 06:02:18;;;;;;;41.60;24.20;;;;;;;-1.40;83.25;97549.95;109779;1250;71692;-62
2022/02/23 06:04:48;;;;;;;43.40;25.10;;;;;;;-1.33;83.20;97550.46;109871;1249;68609;-62
2022/02/23 06:07:17;;;;;;;25.90;15.30;;;;;;;-1.25;83.59;97549.27;109576;1250;69480;-62
2022/02/23 06:09:46;;;;;;;31.80;19.80;;;;;;;-1.18;82.39;97545.66;109840;1250;59721;-63
2022/02/23 06:12:17;;;;;;;43.40;26.90;;;;;;;-1.12;81.68;97539.02;109649;1250;59707;-65
2022/02/23 06:14:47;;;;;;;47.50;30.70;;;;;;;-1.08;82.09;97539.63;109844;1250;71698;-63
2022/02/23 06:17:19;;;;;;;43.50;24.00;;;;;;;-1.03;83.09;97536.42;109758;1250;68210;-62
2022/02/23 06:19:49;;;;;;;53.80;31.40;;;;;;;-0.96;81.62;97534.02;109709;1251;70992;-62
2022/02/23 06:22:20;;;;;;;59.60;34.30;;;;;;;-0.92;82.06;97544.20;109721;1249;59611;-62
2022/02/23 06:24:52;;;;;;;50.80;30.20;;;;;;;-0.89;83.74;97544.26;109610;1250;59780;-65
2022/02/23 06:27:22;;;;;;;49.60;28.30;;;;;;;-0.85;84.30;97548.62;109723;1250;69740;-63
2022/02/23 06:29:52;;;;;;;36.70;23.00;;;;;;;-0.80;84.13;97552.95;109725;1250;68731;-63
2022/02/23 06:32:23;;;;;;;30.90;18.80;;;;;;;-0.71;83.36;97557.86;109787;1250;69462;-62
2022/02/23 06:34:53;;;;;;;29.10;19.00;;;;;;;-0.59;82.98;97563.88;109851;1247;59725;-61
2022/02/23 06:37:24;;;;;;;58.50;38.70;;;;;;;-0.47;82.72;97571.08;109779;1250;59693;-61
2022/02/23 06:39:54;;;;;;;46.50;31.00;;;;;;;-0.35;82.90;97573.35;109723;1251;71553;-60
2022/02/23 06:42:27;;;;;;;34.50;22.90;;;;;;;-0.21;82.28;97577.23;109787;1249;68741;-60
2022/02/23 06:44:56;;;;;;;;;;;;;;;-0.07;82.07;97582.69;109761;1250;69748;-62
2022/02/23 06:47:26;;;;;;;;;;;;;;;0.07;81.66;97582.48;109878;1250;59741;-61
2022/02/23 06:49:56;;;;;;;35.70;23.30;;;;;;;0.23;81.49;97588.88;109720;1250;59700;-63
2022/02/23 06:52:29;;;;;;;51.00;32.80;;;;;;;0.39;81.02;97592.20;109869;1250;70983;-64
2022/02/23 06:54:58;;;;;;;54.80;32.90;;;;;;;0.54;80.75;97598.95;109720;1250;67633;-64
2022/02/23 06:57:38;;;;;;;46.20;30.50;;;;;;;0.70;80.42;97601.90;109801;1250;69444;-63
2022/02/23 07:00:09;;;;;;;57.40;38.50;;;;;;;0.80;79.82;97603.15;109907;1249;59798;-63
2022/02/23 07:02:38;;;;;;;61.00;38.40;;;;;;;0.80;79.65;97610.18;109694;1251;59791;-65
2022/02/23 07:05:09;;;;;;;35.40;25.40;;;;;;;0.87;79.56;97612.36;109801;1250;70936;-63
2022/02/23 07:07:39;;;;;;;55.30;35.30;;;;;;;0.98;79.46;97610.96;109828;1250;66824;-64
2022/02/23 07:10:19;;;;;;;46.40;27.60;;;;;;;1.08;79.40;97612.39;109720;1250;69512;-63
2022/02/23 07:12:49;;;;;;;39.00;25.30;;;;;;;1.22;79.33;97613.83;109721;1250;59719;-63
2022/02/23 07:15:20;;;;;;;32.60;21.30;;;;;;;1.35;79.24;97616.83;109853;1249;59676;-66
2022/02/23 07:17:50;;;;;;;25.80;18.00;;;;;;;1.49;79.00;97619.27;109848;1250;71644;-61
2022/02/23 07:20:24;;;;;;;32.80;21.30;;;;;;;1.66;78.58;97621.83;109900;1250;68043;-62
2022/02/23 07:22:55;;;;;;;35.00;23.20;;;;;;;1.82;78.02;97621.10;109846;1250;69446;-59
2022/02/23 07:25:30;;;;;;;39.10;26.70;;;;;;;1.97;77.43;97625.05;109716;1250;60146;-63
2022/02/23 07:28:07;;;;;;;40.70;28.10;;;;;;;2.11;77.39;97629.89;109966;1249;59716;-62
2022/02/23 07:30:56;;;;;;;41.60;27.10;;;;;;;2.25;77.00;97632.30;109794;1249;70778;-63
2022/02/23 07:33:26;;;;;;;27.90;17.10;;;;;;;2.31;76.63;97633.96;109834;1250;68579;-63
2022/02/23 07:35:55;;;;;;;29.90;19.30;;;;;;;2.40;76.66;97635.54;109781;1250;68654;-65
2022/02/23 07:38:25;;;;;;;41.70;25.30;;;;;;;2.43;75.72;97634.40;109914;1250;59764;-60
2022/02/23 07:40:54;;;;;;;33.20;21.50;;;;;;;2.46;75.70;97637.74;109714;1251;60052;-61
2022/02/23 07:43:43;;;;;;;29.00;18.00;;;;;;;2.47;75.64;97634.77;109821;1250;70944;-62
2022/02/23 07:46:13;;;;;;;33.60;21.30;;;;;;;2.47;75.55;97635.96;109855;1250;67863;-61
2022/02/23 07:48:42;;;;;;;34.40;21.60;;;;;;;2.44;74.96;97635.23;109855;1250;70077;-61
2022/02/23 07:51:12;;;;;;;26.60;17.50;;;;;;;2.43;75.93;97634.58;109892;1249;59774;-62
2022/02/23 07:53:44;;;;;;;31.40;21.70;;;;;;;2.43;75.92;97636.48;110013;1250;59759;-64
2022/02/23 07:56:14;;;;;;;32.20;20.10;;;;;;;2.44;75.95;97633.33;109694;1250;70811;-62
2022/02/23 07:58:51;;;;;;;31.10;19.50;;;;;;;2.48;75.71;97633.69;109760;1250;68090;-63
2022/02/23 08:01:35;;;;;;;30.30;19.20;;;;;;;2.54;75.28;97632.27;109610;1250;69409;-63
2022/02/23 08:04:05;;;;;;;23.90;15.00;;;;;;;2.65;74.98;97640.66;109855;1250;59738;-63
2022/02/23 08:06:34;;;;;;;29.70;18.30;;;;;;;2.75;74.89;97641.63;109894;1250;59710;-65
2022/02/23 08:09:07;;;;;;;25.40;15.50;;;;;;;2.87;74.96;97642.21;109791;1248;71634;-63
2022/02/23 08:11:38;;;;;;;19.80;12.60;;;;;;;3.02;74.94;97641.45;109864;1250;68629;-65
2022/02/23 08:14:10;;;;;;;23.40;15.10;;;;;;;3.19;74.80;97643.73;109935;1250;68756;-61
2022/02/23 08:19:35;;;;;;;21.70;14.00;;;;;;;3.58;73.95;97641.14;110071;1250;59740;-64
2022/02/23 08:22:10;;;;;;;23.50;15.00;;;;;;;3.77;73.20;97637.23;109695;1250;71774;-62
2022/02/23 08:24:44;;;;;;;23.00;14.50;;;;;;;3.92;72.20;97634.89;109670;1252;67574;-59
2022/02/23 08:27:22;;;;;;;27.50;18.90;;;;;;;4.00;71.45;97628.65;109736;1250;70132;-62
2022/02/23 08:29:53;;;;;;;30.90;19.50;;;;;;;4.04;71.31;97628.66;109738;1250;59775;-61
2022/02/23 08:32:23;;;;;;;27.30;18.70;;;;;;;4.09;70.93;97627.60;109672;1250;59741;-63
2022/02/23 08:34:54;;;;;;;29.10;18.20;;;;;;;4.17;71.17;97630.05;109691;1251;71674;-64
2022/02/23 08:37:24;;;;;;;30.90;21.30;;;;;;;4.23;70.02;97632.35;109810;1250;67571;-62
2022/02/23 08:39:56;;;;;;;31.70;21.00;;;;;;;4.31;70.13;97634.56;109712;1250;70328;-63
2022/02/23 08:42:26;;;;;;;34.00;21.50;;;;;;;4.41;70.19;97633.29;110067;1249;59741;-65
2022/02/23 08:44:57;;;;;;;25.70;18.70;;;;;;;4.50;69.63;97632.14;109879;1250;59684;-63
2022/02/23 08:47:28;;;;;;;30.40;18.90;;;;;;;4.65;70.25;97633.58;109717;1250;72194;-62
2022/02/23 08:49:58;;;;;;;28.10;17.20;;;;;;;4.77;69.78;97638.02;109743;1250;68610;-60
2022/02/23 08:52:27;;;;;;;36.00;23.70;;;;;;;4.92;69.04;97638.19;109694;1250;69505;-62
2022/02/23 08:54:59;;;;;;;30.50;22.10;;;;;;;5.02;67.40;97637.05;109835;1250;59761;-62
2022/02/23 08:57:28;;;;;;;32.60;20.70;;;;;;;5.13;68.06;97635.84;109651;1250;59678;-63
2022/02/23 08:59:59;;;;;;;29.10;19.90;;;;;;;5.29;68.33;97635.74;109860;1250;71622;-63
2022/02/23 09:02:29;;;;;;;21.20;14.60;;;;;;;5.45;67.87;97637.22;109893;1250;68662;-62
2022/02/23 09:05:01;;;;;;;26.70;16.50;;;;;;;5.62;68.75;97633.63;109841;1250;69405;-65
2022/02/23 09:07:30;;;;;;;20.10;13.30;;;;;;;5.80;68.33;97636.39;109822;1250;59759;-61
2022/02/23 09:10:03;;;;;;;19.10;11.10;;;;;;;5.95;68.13;97638.23;109845;1249;59691;-63
2022/02/23 09:12:32;;;;;;;21.30;13.60;;;;;;;6.13;67.98;97636.44;109815;1249;70023;-62
2022/02/23 09:15:04;;;;;;;20.20;13.50;;;;;;;6.34;67.63;97636.42;109754;1250;67830;-64
2022/02/23 09:17:33;;;;;;;;;;;;;;;6.56;66.95;97639.74;109793;1250;69389;-66
2022/02/23 09:20:04;;;;;;;17.50;12.10;;;;;;;6.79;66.65;97640.81;109793;1250;59675;-65
2022/02/23 09:22:33;;;;;;;23.10;16.20;;;;;;;7.01;64.69;97644.45;109752;1250;59724;-62
2022/02/23 09:25:07;;;;;;;18.20;12.30;;;;;;;7.23;62.42;97644.45;109857;1249;70810;-62
2022/02/23 09:27:36;;;;;;;18.00;12.50;;;;;;;7.44;63.87;97643.61;109835;1250;68600;-61
2022/02/23 09:30:12;;;;;;;17.10;11.10;;;;;;;7.64;62.86;97641.46;109848;1250;68691;-59
2022/02/23 09:32:43;;;;;;;18.60;12.50;;;;;;;7.75;57.71;97638.02;109802;1250;59770;-60
2022/02/23 09:35:12;;;;;;;20.90;13.30;;;;;;;8.00;61.05;97639.69;109869;1249;59745;-62
2022/02/23 09:37:42;;;;;;;21.40;14.50;;;;;;;8.17;59.06;97636.09;109725;1249;70985;-63
2022/02/23 09:40:16;;;;;;;17.40;13.50;;;;;;;7.97;55.90;97637.09;109771;1250;68444;-63
2022/02/23 09:42:46;;;;;;;21.10;13.90;;;;;;;7.85;55.56;97636.76;109802;1250;69547;-64
2022/02/23 09:45:15;;;;;;;19.90;14.40;;;;;;;7.85;56.28;97637.59;109819;1250;59717;-63
2022/02/23 09:47:45;;;;;;;20.20;13.30;;;;;;;8.04;55.62;97639.30;109910;1250;59675;-64
2022/02/23 09:50:22;;;;;;;;;;;;;;;7.96;55.95;97639.08;109879;1250;70881;-62
2022/02/23 09:52:52;;;;;;;22.70;14.40;;;;;;;8.04;55.76;97638.40;109855;1250;67815;-64
2022/02/23 09:55:22;;;;;;;20.20;13.50;;;;;;;7.41;56.83;97641.85;109757;1250;68875;-62
2022/02/23 09:57:51;;;;;;;21.70;16.30;;;;;;;7.16;58.28;97644.65;109913;1250;59782;-60
2022/02/23 10:00:21;;;;;;;24.90;15.30;;;;;;;7.15;58.67;97640.73;109867;1250;59730;-64
2022/02/23 10:02:53;;;;;;;18.30;13.40;;;;;;;7.22;58.23;97641.52;109846;1250;70848;-63
2022/02/23 10:05:23;;;;;;;21.80;15.60;;;;;;;7.06;58.50;97640.16;109841;1250;67878;-61
2022/02/23 10:08:04;;;;;;;19.30;15.00;;;;;;;7.23;58.60;97639.60;109747;1249;67729;-61
2022/02/23 10:10:54;;;;;;;24.10;15.20;;;;;;;7.32;58.61;97639.09;109766;1250;59725;-61
2022/02/23 10:13:25;;;;;;;21.30;15.70;;;;;;;7.50;58.29;97635.47;109829;1250;59756;-64
2022/02/23 10:15:54;;;;;;;21.80;17.40;;;;;;;7.55;57.96;97635.14;109865;1250;71035;-62
2022/02/23 10:18:45;;;;;;;19.40;14.80;;;;;;;7.27;58.26;97641.45;109982;1250;68290;-63
2022/02/23 10:21:17;;;;;;;23.00;16.10;;;;;;;7.80;57.91;97643.27;109746;1250;68662;-63
2022/02/23 10:23:47;;;;;;;24.60;17.30;;;;;;;8.34;56.33;97639.41;109987;1249;59717;-63
2022/02/23 10:26:18;;;;;;;17.90;13.10;;;;;;;8.75;55.09;97639.04;109867;1249;59723;-63
2022/02/23 10:28:52;;;;;;;20.10;14.20;;;;;;;9.09;54.32;97643.53;110050;1249;70948;-63
2022/02/23 10:31:21;;;;;;;19.20;14.90;;;;;;;9.46;53.76;97642.70;110041;1248;67835;-62
2022/02/23 10:33:50;;;;;;;18.80;13.30;;;;;;;10.04;52.78;97640.77;110081;1248;69427;-65
2022/02/23 10:36:22;;;;;;;19.40;13.40;;;;;;;11.04;50.78;97644.91;110051;1249;59779;-66
2022/02/23 10:39:07;;;;;;;18.00;12.90;;;;;;;11.59;47.31;97645.11;110062;1250;59688;-63
2022/02/23 10:41:42;;;;;;;24.20;17.00;;;;;;;11.78;47.24;97644.43;109950;1250;70782;-64
2022/02/23 10:44:12;;;;;;;28.40;21.00;;;;;;;11.93;47.99;97645.30;110053;1249;67773;-64
2022/02/23 10:46:45;;;;;;;19.50;15.90;;;;;;;11.75;46.47;97645.90;109961;1250;68957;-63
2022/02/23 10:49:15;;;;;;;25.10;20.30;;;;;;;11.43;47.43;97647.16;109792;1250;59742;-65
2022/02/23 10:51:45;;;;;;;23.20;15.90;;;;;;;11.32;48.77;97645.55;109770;1250;59685;-63
2022/02/23 10:54:14;;;;;;;22.50;14.80;;;;;;;11.97;47.64;97638.54;109876;1250;71013;-63
2022/02/23 10:56:48;;;;;;;18.00;13.50;;;;;;;12.85;48.17;97628.99;109901;1250;67934;-65
2022/02/23 10:59:23;;;;;;;21.10;17.50;;;;;;;13.98;46.35;97624.95;109350;1252;70304;-62
2022/02/23 11:01:54;;;;;;;20.40;14.20;;;;;;;14.35;42.84;97622.14;109809;1250;59693;-63
2022/02/23 11:04:24;;;;;;;19.80;14.70;;;;;;;14.15;42.02;97618.82;109793;1250;59756;-62
2022/02/23 11:06:54;;;;;;;18.50;14.30;;;;;;;13.54;42.00;97617.84;109796;1250;70985;-63
2022/02/23 11:09:24;;;;;;;17.50;13.30;;;;;;;12.66;43.50;97615.71;109856;1250;67846;-63
2022/02/23 11:11:54;;;;;;;15.20;11.80;;;;;;;11.36;44.14;97614.87;109769;1250;68907;-67
2022/02/23 11:14:26;;;;;;;14.00;10.60;;;;;;;10.71;44.59;97615.31;109787;1250;59680;-63
2022/02/23 11:16:59;;;;;;;13.60;10.40;;;;;;;10.17;45.79;97605.30;109787;1250;59681;-65
2022/02/23 11:19:31;;;;;;;14.80;11.10;;;;;;;9.96;46.04;97609.67;109917;1249;70758;-64
2022/02/23 11:22:03;;;;;;;15.70;12.00;;;;;;;9.89;47.23;97609.25;110091;1249;67932;-63
2022/02/23 11:24:32;;;;;;;16.20;11.80;;;;;;;9.96;47.40;97601.67;109855;1250;69609;-62
2022/02/23 11:27:07;;;;;;;15.70;11.30;;;;;;;9.88;46.57;97598.49;109823;1250;59740;-65
2022/02/23 11:30:00;;;;;;;17.30;12.40;;;;;;;9.68;47.03;97601.77;110042;1249;59683;-62
2022/02/23 11:32:30;;;;;;;18.80;14.10;;;;;;;9.37;47.97;97599.96;110053;1249;70736;-63
2022/02/23 11:34:59;;;;;;;21.20;16.20;;;;;;;8.83;51.13;97601.49;109891;1248;68587;-63